Time;durP1;ratioP1;P1;durP2;ratioP2;P2;SDS_P1;SDS_P2;PMS_P1;PMS_P2;Temp;Humidity;BMP_temperature;BMP_pressure;BME280_temperature;BME280_humidity;BME280_pressure;Samples;Min_cycle;Max_cycle;Signal;HPM_P1;HPM_P2
2022/03/16 00:02:20;;;;;;;116.03;49.40;;;;;;;;;;4860568;29;20189;-82
2022/03/16 00:04:56;;;;;;;113.90;50.53;;;4.60;99.90;;;;;;4859851;29;20530;-82
2022/03/16 00:07:22;;;;;;;111.47;50.03;;;;;;;;;;4860590;29;20291;-82
2022/03/16 00:09:48;;;;;;;113.43;49.13;;;;;;;;;;4859490;29;20186;-82
2022/03/16 00:12:15;;;;;;;114.70;51.13;;;;;;;;;;4860554;29;20670;-83
2022/03/16 00:14:41;;;;;;;117.43;49.33;;;4.50;99.90;;;;;;4859557;29;20182;-83
2022/03/16 00:17:08;;;;;;;99.90;46.27;;;;;;;;;;4844338;29;20189;-83
2022/03/16 00:19:34;;;;;;;101.20;45.73;;;4.60;99.90;;;;;;4843962;29;20191;-82
2022/03/16 00:22:02;;;;;;;91.50;43.57;;;4.50;99.90;;;;;;4859431;29;20184;-83
2022/03/16 00:24:28;;;;;;;94.80;43.23;;;;;;;;;;4859355;29;20333;-82
2022/03/16 00:26:54;;;;;;;94.13;44.93;;;;;;;;;;4844168;29;20304;-83
2022/03/16 00:29:20;;;;;;;101.10;45.60;;;;;;;;;;4860382;29;20187;-82
2022/03/16 00:31:46;;;;;;;105.10;47.40;;;;;;;;;;4843950;29;20214;-83
2022/03/16 00:34:13;;;;;;;95.60;44.87;;;;;;;;;;4858980;29;20198;-84
2022/03/16 00:36:39;;;;;;;100.27;47.53;;;;;;;;;;4859524;29;20245;-82
2022/03/16 00:39:05;;;;;;;96.07;47.37;;;;;;;;;;4859238;29;20193;-82
2022/03/16 00:41:32;;;;;;;107.23;46.73;;;;;;;;;;4858969;29;20226;-82
2022/03/16 00:43:58;;;;;;;91.73;44.93;;;;;;;;;;4858947;29;20191;-83
2022/03/16 00:46:24;;;;;;;94.37;46.10;;;;;;;;;;4858931;29;20192;-82
2022/03/16 00:48:49;;;;;;;93.10;45.43;;;4.10;99.90;;;;;;4859160;29;20194;-82
2022/03/16 00:51:16;;;;;;;100.63;44.63;;;;;;;;;;4859040;29;20223;-82
2022/03/16 00:53:45;;;;;;;99.67;44.37;;;;;;;;;;4844069;29;20205;-82
2022/03/16 00:56:11;;;;;;;104.77;46.67;;;;;;;;;;4859035;29;20241;-82
2022/03/16 00:58:37;;;;;;;103.37;49.37;;;;;;;;;;4858760;29;20654;-82
2022/03/16 01:01:07;;;;;;;107.20;48.70;;;4.30;99.90;;;;;;4843764;29;20645;-83
2022/03/16 01:03:33;;;;;;;110.20;49.17;;;;;;;;;;4861343;29;20195;-83
2022/03/16 01:05:59;;;;;;;107.87;49.93;;;;;;;;;;4862787;29;20187;-83
2022/03/16 01:08:25;;;;;;;99.00;46.70;;;;;;;;;;4863194;29;20188;-83
2022/03/16 01:10:52;;;;;;;118.20;54.13;;;;;;;;;;4862505;29;20217;-82
2022/03/16 01:13:18;;;;;;;117.67;54.40;;;;;;;;;;4862965;29;20204;-83
2022/03/16 01:15:44;;;;;;;123.60;55.20;;;;;;;;;;4863559;29;20185;-83
2022/03/16 01:18:10;;;;;;;134.97;59.47;;;;;;;;;;4863152;29;20189;-81
2022/03/16 01:20:36;;;;;;;116.77;56.07;;;;;;;;;;4861851;29;20254;-81
2022/03/16 01:23:02;;;;;;;107.70;52.47;;;;;;;;;;4862098;29;20636;-81
2022/03/16 01:25:28;;;;;;;112.17;50.43;;;;;;;;;;4863010;29;20216;-81
2022/03/16 01:27:54;;;;;;;114.10;52.47;;;;;;;;;;4863734;29;20259;-81
2022/03/16 01:30:20;;;;;;;113.27;51.17;;;;;;;;;;4861560;29;20580;-82
2022/03/16 01:32:46;;;;;;;113.67;52.27;;;;;;;;;;4862008;29;20201;-81
2022/03/16 01:35:12;;;;;;;128.43;55.87;;;3.60;99.90;;;;;;4846522;29;20217;-81
2022/03/16 01:37:39;;;;;;;122.47;54.83;;;;;;;;;;4862767;29;20183;-82
2022/03/16 01:40:08;;;;;;;116.33;51.50;;;3.60;99.90;;;;;;4861798;29;20633;-82
2022/03/16 01:42:34;;;;;;;128.13;56.43;;;;;;;;;;4846480;29;20185;-82
2022/03/16 01:45:00;;;;;;;110.77;52.70;;;;;;;;;;4846377;29;20592;-82
2022/03/16 01:47:26;;;;;;;112.53;50.83;;;;;;;;;;4846117;29;20258;-82
2022/03/16 01:49:55;;;;;;;110.37;50.93;;;3.50;99.90;;;;;;4862940;29;20218;-83
2022/03/16 01:52:29;;;;;;;123.90;54.83;;;3.30;99.90;;;;;;4861391;29;20533;-84
2022/03/16 01:54:55;;;;;;;134.03;55.23;;;;;;;;;;4846159;29;20251;-82
2022/03/16 01:57:21;;;;;;;139.83;61.37;;;;;;;;;;4862483;29;20660;-83
2022/03/16 01:59:48;;;;;;;142.67;62.37;;;;;;;;;;4862848;29;20192;-82
2022/03/16 02:02:14;;;;;;;132.17;55.47;;;;;;;;;;4861734;29;20194;-82
2022/03/16 02:04:41;;;;;;;140.50;58.80;;;3.30;99.90;;;;;;4861257;29;20191;-82
2022/03/16 02:07:07;;;;;;;128.77;57.30;;;;;;;;;;4862764;29;20273;-82
2022/03/16 02:09:33;;;;;;;146.30;62.70;;;;;;;;;;4862052;29;20192;-83
2022/03/16 02:11:59;;;;;;;163.27;65.57;;;;;;;;;;4861345;29;20332;-81
2022/03/16 02:14:25;;;;;;;147.60;63.30;;;;;;;;;;4845634;29;20713;-82
2022/03/16 02:16:51;;;;;;;149.97;62.23;;;;;;;;;;4861696;29;20217;-82
2022/03/16 02:19:18;;;;;;;158.30;65.87;;;;;;;;;;4845851;29;20196;-82
2022/03/16 02:21:49;;;;;;;138.53;60.13;;;3.30;99.90;;;;;;4861929;29;20220;-82
2022/03/16 02:24:16;;;;;;;127.97;56.67;;;;;;;;;;4861350;29;20244;-81
2022/03/16 02:26:42;;;;;;;116.03;55.03;;;;;;;;;;4845498;29;20247;-81
2022/03/16 02:29:08;;;;;;;119.43;51.70;;;;;;;;;;4862091;29;20187;-82
2022/03/16 02:31:33;;;;;;;107.53;50.60;;;3.30;99.90;;;;;;4845465;29;20220;-83
2022/03/16 02:33:59;;;;;;;129.13;54.23;;;;;;;;;;4863338;29;20681;-82
2022/03/16 02:36:25;;;;;;;131.10;54.13;;;;;;;;;;4870011;29;20198;-85
2022/03/16 02:38:51;;;;;;;132.90;55.97;;;;;;;;;;4854424;29;20194;-82
2022/03/16 02:41:17;;;;;;;130.63;57.03;;;;;;;;;;4870056;29;20209;-81
2022/03/16 02:43:43;;;;;;;135.90;60.00;;;3.40;99.90;;;;;;4870194;29;20274;-82
2022/03/16 02:46:09;;;;;;;140.43;60.43;;;;;;;;;;4846666;29;20183;-83
2022/03/16 02:48:35;;;;;;;135.73;57.90;;;3.00;99.90;;;;;;4860313;29;20194;-83
2022/03/16 02:51:00;;;;;;;114.03;52.53;;;3.30;99.90;;;;;;4860625;29;20720;-83
2022/03/16 02:53:26;;;;;;;125.30;55.83;;;;;;;;;;4860222;29;20202;-85
2022/03/16 02:55:52;;;;;;;113.13;53.93;;;;;;;;;;4844969;29;20237;-83
2022/03/16 02:58:19;;;;;;;119.67;53.97;;;;;;;;;;4860480;29;20182;-82
2022/03/16 03:00:45;;;;;;;112.80;53.03;;;;;;;;;;4861386;29;20191;-83
2022/03/16 03:03:11;;;;;;;119.73;54.13;;;;;;;;;;4860567;29;20197;-82
2022/03/16 03:05:37;;;;;;;114.97;51.90;;;;;;;;;;4861610;29;20182;-81
2022/03/16 03:08:03;;;;;;;110.90;52.30;;;;;;;;;;4861378;29;20554;-81
2022/03/16 03:10:29;;;;;;;122.00;54.97;;;;;;;;;;4861077;29;20229;-83
2022/03/16 03:12:56;;;;;;;117.90;52.30;;;;;;;;;;4861542;29;20183;-83
2022/03/16 03:15:22;;;;;;;114.00;51.73;;;;;;;;;;4860378;29;20560;-83
2022/03/16 03:17:48;;;;;;;110.27;51.30;;;;;;;;;;4860864;29;20205;-83
2022/03/16 03:20:14;;;;;;;113.67;53.20;;;3.00;99.90;;;;;;4845203;29;20552;-82
2022/03/16 03:22:40;;;;;;;111.60;53.17;;;3.10;99.90;;;;;;4861506;29;20201;-82
2022/03/16 03:25:10;;;;;;;109.30;48.70;;;3.10;99.90;;;;;;4861585;29;20210;-82
2022/03/16 03:27:36;;;;;;;104.23;50.13;;;;;;;;;;4859088;29;20549;-83
2022/03/16 03:30:04;;;;;;;110.23;49.63;;;3.10;99.90;;;;;;4859995;29;20193;-82
2022/03/16 03:32:30;;;;;;;115.63;50.90;;;;;;;;;;4859888;29;20221;-82
2022/03/16 03:34:56;;;;;;;106.33;49.57;;;3.00;99.90;;;;;;4860945;29;20215;-82
2022/03/16 03:37:22;;;;;;;112.67;52.83;;;;;;;;;;4861074;29;20189;-82
2022/03/16 03:39:48;;;;;;;157.23;63.07;;;;;;;;;;4860528;29;20716;-82
2022/03/16 03:42:14;;;;;;;137.77;59.87;;;;;;;;;;4859585;29;20216;-82
2022/03/16 03:44:40;;;;;;;142.10;60.70;;;;;;;;;;4860701;29;20183;-82
2022/03/16 03:47:08;;;;;;;138.83;58.53;;;3.00;99.90;;;;;;4859616;29;20667;-81
2022/03/16 03:49:41;;;;;;;162.60;65.70;;;3.00;99.90;;;;;;4859362;29;20278;-82
2022/03/16 03:52:08;;;;;;;156.70;64.60;;;2.70;99.90;;;;;;4860886;29;20309;-82
2022/03/16 03:54:34;;;;;;;158.53;66.37;;;;;;;;;;4860344;29;20242;-82
2022/03/16 03:57:01;;;;;;;145.23;60.97;;;;;;;;;;4860795;29;20266;-83
2022/03/16 03:59:27;;;;;;;126.83;56.40;;;;;;;;;;4860623;29;20178;-83
2022/03/16 04:01:53;;;;;;;116.33;52.50;;;;;;;;;;4843974;29;20208;-82
2022/03/16 04:04:19;;;;;;;117.97;54.10;;;;;;;;;;4859949;29;20255;-83
2022/03/16 04:06:45;;;;;;;124.93;55.70;;;;;;;;;;4859938;29;20281;-83
2022/03/16 04:09:11;;;;;;;134.90;55.13;;;;;;;;;;4860752;29;20230;-83
2022/03/16 04:11:37;;;;;;;128.93;54.73;;;;;;;;;;4859039;29;20684;-83
2022/03/16 04:14:04;;;;;;;118.90;54.63;;;3.10;99.90;;;;;;4861006;29;20190;-83
2022/03/16 04:16:30;;;;;;;120.80;54.40;;;;;;;;;;4859493;29;20199;-82
2022/03/16 04:18:56;;;;;;;121.83;55.00;;;;;;;;;;4860390;29;20200;-83
2022/03/16 04:21:23;;;;;;;125.30;56.53;;;;;;;;;;4860666;29;20239;-83
2022/03/16 04:23:51;;;;;;;106.97;50.57;;;;;;;;;;4843813;29;20190;-83
2022/03/16 04:26:18;;;;;;;110.67;52.40;;;;;;;;;;4859514;29;20186;-83
2022/03/16 04:28:45;;;;;;;125.87;53.67;;;;;;;;;;4860623;29;20279;-82
2022/03/16 04:31:12;;;;;;;121.90;55.47;;;;;;;;;;4859155;29;20250;-82
2022/03/16 04:33:38;;;;;;;115.87;50.90;;;;;;;;;;4858886;29;20201;-82
2022/03/16 04:36:04;;;;;;;127.77;55.50;;;2.80;99.90;;;;;;4859600;29;20197;-83
2022/03/16 04:38:30;;;;;;;120.93;55.23;;;;;;;;;;4845077;29;20193;-81
2022/03/16 04:40:56;;;;;;;121.67;55.97;;;;;;;;;;4862322;29;20207;-80
2022/03/16 04:43:22;;;;;;;126.63;56.87;;;;;;;;;;4862799;29;20197;-81
2022/03/16 04:45:48;;;;;;;127.63;55.83;;;;;;;;;;4863802;29;20213;-81
2022/03/16 04:48:14;;;;;;;124.70;55.83;;;;;;;;;;4862829;29;20185;-81
2022/03/16 04:50:41;;;;;;;117.60;51.47;;;2.80;99.90;;;;;;4863282;29;20218;-81
2022/03/16 04:53:07;;;;;;;113.97;53.30;;;;;;;;;;4863970;29;20266;-81
2022/03/16 04:55:36;;;;;;;122.37;53.90;;;;;;;;;;4863878;29;20236;-81
2022/03/16 04:58:07;;;;;;;124.43;55.00;;;3.10;99.90;;;;;;4847328;29;20190;-81
2022/03/16 05:00:34;;;;;;;111.70;52.90;;;;;;;;;;4877970;29;20222;-81
2022/03/16 05:03:00;;;;;;;128.70;61.00;;;;;;;;;;4846727;29;20274;-81
2022/03/16 05:05:26;;;;;;;128.23;57.90;;;;;;;;;;4863606;29;20222;-80
2022/03/16 05:07:53;;;;;;;128.50;55.17;;;2.90;99.90;;;;;;4862297;29;20194;-80
2022/03/16 05:10:19;;;;;;;133.90;56.30;;;;;;;;;;4863740;29;20225;-79
2022/03/16 05:12:45;;;;;;;131.87;56.40;;;;;;;;;;4863426;29;20655;-80
2022/03/16 05:15:19;;;;;;;119.00;51.70;;;2.90;99.90;;;;;;4862402;29;20248;-80
2022/03/16 05:17:46;;;;;;;111.17;49.17;;;2.90;99.90;;;;;;4877466;29;20194;-80
2022/03/16 05:20:12;;;;;;;110.27;48.17;;;2.90;99.90;;;;;;4861996;29;20341;-80
2022/03/16 05:22:45;;;;;;;106.03;48.57;;;2.90;99.90;;;;;;4847095;29;20354;-80
2022/03/16 05:25:12;;;;;;;101.07;47.80;;;3.00;99.90;;;;;;4861983;29;20549;-80
2022/03/16 05:27:39;;;;;;;104.10;46.97;;;;;;;;;;4863080;29;20184;-80
2022/03/16 05:30:06;;;;;;;100.50;47.67;;;2.80;99.90;;;;;;4861747;29;20543;-80
2022/03/16 05:32:32;;;;;;;106.00;48.37;;;3.10;99.90;;;;;;4861931;29;20178;-80
2022/03/16 05:34:58;;;;;;;110.73;53.63;;;;;;;;;;4866185;29;20193;-80
2022/03/16 05:37:24;;;;;;;104.17;50.77;;;;;;;;;;4872020;29;20267;-80
2022/03/16 05:39:50;;;;;;;134.37;57.37;;;;;;;;;;4869876;29;20673;-80
2022/03/16 05:42:16;;;;;;;132.23;57.77;;;;;;;;;;4871390;29;20189;-81
2022/03/16 05:44:42;;;;;;;129.17;56.50;;;2.90;99.90;;;;;;4871009;29;20599;-82
2022/03/16 05:47:08;;;;;;;134.70;59.47;;;;;;;;;;4870444;29;20190;-82
2022/03/16 05:49:34;;;;;;;132.63;58.30;;;3.40;99.90;;;;;;4855205;29;20266;-81
2022/03/16 05:52:01;;;;;;;134.30;60.03;;;;;;;;;;4853132;29;20229;-81
2022/03/16 05:54:27;;;;;;;150.97;68.27;;;;;;;;;;4853620;29;20232;-81
2022/03/16 05:56:53;;;;;;;158.57;66.63;;;3.50;99.90;;;;;;4868580;29;20271;-82
2022/03/16 05:59:19;;;;;;;164.83;76.53;;;;;;;;;;4875138;29;20187;-80
2022/03/16 06:01:45;;;;;;;165.53;73.10;;;;;;;;;;4864149;29;20190;-81
2022/03/16 06:04:11;;;;;;;178.47;77.47;;;3.70;99.90;;;;;;4879076;29;20192;-81
2022/03/16 06:06:36;;;;;;;180.97;72.53;;;3.40;99.90;;;;;;4879438;29;20251;-82
2022/03/16 06:09:03;;;;;;;169.67;74.77;;;;;;;;;;4860826;29;20186;-82
2022/03/16 06:11:29;;;;;;;161.27;71.63;;;;;;;;;;4857721;29;20693;-80
2022/03/16 06:13:55;;;;;;;145.47;65.70;;;;;;;;;;4869729;29;20192;-81
2022/03/16 06:16:21;;;;;;;155.20;67.97;;;;;;;;;;4871716;29;20362;-81
2022/03/16 06:18:47;;;;;;;131.30;57.67;;;3.90;99.90;;;;;;4878939;29;20724;-82
2022/03/16 06:21:13;;;;;;;150.80;63.20;;;;;;;;;;4863547;29;20251;-82
2022/03/16 06:23:39;;;;;;;131.37;60.43;;;;;;;;;;4879123;29;20280;-82
2022/03/16 06:26:05;;;;;;;121.07;56.00;;;;;;;;;;4878635;29;20195;-82
2022/03/16 06:28:32;;;;;;;122.97;54.13;;;;;;;;;;4880158;29;20196;-83
2022/03/16 06:30:58;;;;;;;127.87;59.30;;;;;;;;;;4874345;29;20225;-81
2022/03/16 06:33:24;;;;;;;143.57;62.60;;;;;;;;;;4862921;29;20241;-81
2022/03/16 06:35:50;;;;;;;122.73;57.83;;;;;;;;;;4864200;29;20205;-84
2022/03/16 06:38:16;;;;;;;125.50;56.00;;;;;;;;;;4876654;29;20530;-82
2022/03/16 06:40:42;;;;;;;112.67;52.40;;;4.10;99.90;;;;;;4861447;29;20202;-82
2022/03/16 06:43:08;;;;;;;116.63;53.83;;;;;;;;;;4860809;29;20193;-82
2022/03/16 06:45:34;;;;;;;115.73;48.23;;;;;;;;;;4845831;29;20692;-82
2022/03/16 06:48:01;;;;;;;102.43;47.23;;;4.10;99.90;;;;;;4860221;29;20696;-82
2022/03/16 06:50:29;;;;;;;99.47;47.17;;;4.20;99.90;;;;;;4861015;29;20218;-80
2022/03/16 06:52:56;;;;;;;97.90;45.80;;;4.30;99.90;;;;;;4844993;29;20193;-80
2022/03/16 06:55:22;;;;;;;96.10;47.80;;;;;;;;;;4861252;29;20245;-81
2022/03/16 06:57:48;;;;;;;101.77;47.50;;;;;;;;;;4860260;29;20235;-81
2022/03/16 07:00:15;;;;;;;99.57;47.27;;;4.50;99.90;;;;;;4844891;29;20223;-81
2022/03/16 07:02:54;;;;;;;97.90;45.83;;;4.60;99.90;;;;;;4860127;29;20192;-81
2022/03/16 07:05:23;;;;;;;110.10;49.67;;;4.60;99.90;;;;;;4861212;29;20181;-81
2022/03/16 07:07:50;;;;;;;105.03;48.23;;;;;;;;;;4861734;29;20186;-81
2022/03/16 07:10:16;;;;;;;111.73;46.80;;;;;;;;;;4860635;29;20228;-82
2022/03/16 07:12:42;;;;;;;106.13;48.53;;;;;;;;;;4862020;29;20276;-82
2022/03/16 07:15:09;;;;;;;108.70;49.33;;;5.10;99.90;;;;;;4862477;29;20183;-82
2022/03/16 07:17:35;;;;;;;134.07;55.67;;;;;;;;;;4860498;29;20538;-82
2022/03/16 07:20:03;;;;;;;138.43;57.53;;;;;;;;;;4859749;29;20226;-82
2022/03/16 07:22:29;;;;;;;119.00;51.03;;;;;;;;;;4861712;29;20187;-83
2022/03/16 07:24:55;;;;;;;111.13;50.47;;;;;;;;;;4859199;29;20190;-83
2022/03/16 07:27:21;;;;;;;104.10;46.27;;;;;;;;;;4844158;29;20204;-82
2022/03/16 07:29:47;;;;;;;112.37;48.40;;;;;;;;;;4860763;29;20632;-82
2022/03/16 07:32:13;;;;;;;96.43;43.90;;;5.50;99.90;;;;;;4866417;29;20227;-82
2022/03/16 07:34:39;;;;;;;119.20;48.53;;;;;;;;;;4873281;29;20183;-83
2022/03/16 07:37:05;;;;;;;143.10;53.23;;;;;;;;;;4868917;29;20189;-82
2022/03/16 07:39:31;;;;;;;122.53;53.47;;;;;;;;;;4870401;29;20228;-83
2022/03/16 07:41:57;;;;;;;144.73;62.63;;;;;;;;;;4871607;29;20195;-82
2022/03/16 07:44:23;;;;;;;149.93;61.33;;;;;;;;;;4872314;29;20643;-83
2022/03/16 07:46:49;;;;;;;132.27;57.13;;;;;;;;;;4878311;29;20189;-83
2022/03/16 07:49:15;;;;;;;127.13;55.13;;;;;;;;;;4877815;29;20635;-83
2022/03/16 07:51:41;;;;;;;132.57;56.57;;;;;;;;;;4879053;29;20264;-83
2022/03/16 07:54:06;;;;;;;119.03;53.00;;;5.70;99.90;;;;;;4880121;29;20186;-84
2022/03/16 07:56:32;;;;;;;113.20;50.47;;;5.90;99.90;;;;;;4896965;29;20186;-84
2022/03/16 07:59:01;;;;;;;104.90;48.60;;;;;;;;;;4861410;29;20201;-83
2022/03/16 08:01:27;;;;;;;119.70;51.50;;;;;;;;;;4861350;29;20198;-83
2022/03/16 08:03:53;;;;;;;121.23;53.20;;;;;;;;;;4860744;29;20185;-84
2022/03/16 08:06:19;;;;;;;117.03;52.27;;;;;;;;;;4858818;29;20189;-83
2022/03/16 08:08:45;;;;;;;115.03;51.27;;;;;;;;;;4859172;29;20220;-81
2022/03/16 08:11:11;;;;;;;102.50;49.10;;;;;;;;;;4858439;29;20307;-83
2022/03/16 08:13:38;;;;;;;119.13;51.33;;;;;;;;;;4876150;29;20198;-82
2022/03/16 08:16:07;;;;;;;102.33;50.13;;;5.70;99.90;;;;;;4881221;29;20182;-83
2022/03/16 08:18:34;;;;;;;104.17;49.23;;;;;;;;;;4882969;29;20265;-82
2022/03/16 08:21:00;;;;;;;104.93;47.40;;;;;;;;;;4881642;29;20219;-83
2022/03/16 08:23:26;;;;;;;107.47;47.17;;;;;;;;;;4883271;29;20225;-84
2022/03/16 08:25:52;;;;;;;109.73;50.70;;;;;;;;;;4884485;29;20644;-82
2022/03/16 08:28:18;;;;;;;111.63;53.63;;;;;;;;;;4894307;29;20190;-82
2022/03/16 08:30:45;;;;;;;103.40;48.70;;;;;;;;;;4879157;29;20222;-84
2022/03/16 08:33:11;;;;;;;91.50;45.10;;;;;;;;;;4863184;29;20339;-82
2022/03/16 08:35:37;;;;;;;91.03;45.93;;;;;;;;;;4876308;29;20194;-83
2022/03/16 08:38:03;;;;;;;90.27;45.63;;;;;;;;;;4880927;29;20233;-84
2022/03/16 08:40:28;;;;;;;99.50;47.47;;;6.30;99.90;;;;;;4890387;29;20540;-83
2022/03/16 08:42:54;;;;;;;108.43;50.23;;;;;;;;;;4882547;29;20217;-83
2022/03/16 08:45:20;;;;;;;99.43;49.00;;;;;;;;;;4883019;29;20194;-82
2022/03/16 08:47:47;;;;;;;94.60;47.57;;;;;;;;;;4868966;29;20221;-83
2022/03/16 08:50:13;;;;;;;95.60;48.43;;;;;;;;;;4884190;29;20225;-81
2022/03/16 08:52:39;;;;;;;95.73;46.40;;;;;;;;;;4885762;29;20201;-83
2022/03/16 08:55:05;;;;;;;95.77;46.93;;;6.70;99.90;;;;;;4881573;29;20269;-82
2022/03/16 08:57:32;;;;;;;140.33;67.10;;;6.70;99.90;;;;;;4874852;29;20699;-83
2022/03/16 08:59:58;;;;;;;110.43;52.13;;;;;;;;;;4862233;29;20628;-83
2022/03/16 09:02:24;;;;;;;95.90;48.47;;;6.60;99.90;;;;;;4863203;29;20187;-84
2022/03/16 09:04:52;;;;;;;113.47;52.43;;;;;;;;;;4863280;29;20663;-84
2022/03/16 09:07:18;;;;;;;104.87;48.73;;;;;;;;;;4863214;29;20570;-84
2022/03/16 09:09:44;;;;;;;100.10;47.37;;;;;;;;;;4863485;29;20187;-84
2022/03/16 09:12:11;;;;;;;93.90;46.20;;;;;;;;;;4861486;29;20736;-85
2022/03/16 09:14:37;;;;;;;106.90;50.03;;;;;;;;;;4861959;29;20186;-84
2022/03/16 09:17:03;;;;;;;102.00;50.00;;;;;;;;;;4862233;29;20546;-85
2022/03/16 09:19:29;;;;;;;90.23;44.30;;;;;;;;;;4864498;29;20197;-84
2022/03/16 09:21:55;;;;;;;87.43;42.47;;;;;;;;;;4872934;29;20226;-84
2022/03/16 09:24:24;;;;;;;100.07;44.93;;;;;;;;;;4871037;29;20194;-85
2022/03/16 09:26:50;;;;;;;91.20;40.60;;;;;;;;;;4869471;29;20187;-85
2022/03/16 09:29:18;;;;;;;81.60;40.57;;;;;;;;;;4862082;29;20191;-86
2022/03/16 09:31:44;;;;;;;93.83;41.57;;;;;;;;;;4846528;29;20230;-86
2022/03/16 09:34:10;;;;;;;87.03;42.20;;;;;;;;;;4861249;29;20194;-86
2022/03/16 09:36:37;;;;;;;150.50;61.97;;;7.30;99.90;;;;;;4864378;29;20191;-86
2022/03/16 09:39:06;;;;;;;79.47;40.70;;;7.70;99.90;;;;;;4865101;29;20190;-86
2022/03/16 09:41:32;;;;;;;105.03;46.27;;;;;;;;;;4881121;29;20469;-86
2022/03/16 09:44:00;;;;;;;98.87;46.60;;;;;;;;;;4879838;29;20218;-86
2022/03/16 09:46:29;;;;;;;134.73;57.47;;;7.60;99.90;;;;;;4869398;29;20178;-86
2022/03/16 09:48:55;;;;;;;84.37;41.80;;;;;;;;;;4870005;29;20563;-86
2022/03/16 09:51:22;;;;;;;71.77;37.97;;;7.70;99.90;;;;;;4866207;29;20225;-86
2022/03/16 09:53:48;;;;;;;66.97;35.90;;;;;;;;;;4846297;29;20214;-86
2022/03/16 09:56:14;;;;;;;76.93;37.43;;;7.70;99.90;;;;;;4867267;29;20325;-86
2022/03/16 09:58:42;;;;;;;104.17;46.67;;;7.70;99.90;;;;;;4844933;29;20191;-87
2022/03/16 10:01:09;;;;;;;122.47;51.77;;;;;;;;;;4863223;29;20454;-86
2022/03/16 10:03:35;;;;;;;87.70;44.00;;;7.80;99.90;;;;;;4863563;29;20236;-85
2022/03/16 10:06:01;;;;;;;92.90;43.27;;;;;;;;;;4863575;29;20234;-86
2022/03/16 10:08:35;;;;;;;99.10;45.13;;;7.80;99.90;;;;;;4868748;29;20190;-85
2022/03/16 10:14:14;;;;;;;87.27;42.17;;;8.10;99.90;;;;;;4880257;29;20279;-85
2022/03/16 10:19:50;;;;;;;95.53;46.00;;;;;;;;;;4869359;29;20177;-86
2022/03/16 10:22:27;;;;;;;102.77;45.77;;;8.20;99.90;;;;;;4879440;29;20186;-85
2022/03/16 10:25:05;;;;;;;88.93;43.93;;;7.90;99.90;;;;;;4880487;29;20186;-85
2022/03/16 10:27:31;;;;;;;84.63;40.17;;;;;;;;;;4879461;29;20186;-85
2022/03/16 10:29:58;;;;;;;79.37;41.60;;;;;;;;;;4880803;29;20643;-85
2022/03/16 10:32:24;;;;;;;78.27;40.13;;;;;;;;;;4881201;29;20257;-85
2022/03/16 10:34:55;;;;;;;77.03;40.13;;;8.10;99.90;;;;;;4881461;29;20654;-85
2022/03/16 10:37:22;;;;;;;88.47;43.10;;;8.00;99.90;;;;;;4879024;29;20276;-86
2022/03/16 10:39:50;;;;;;;77.93;40.43;;;8.00;99.90;;;;;;4880523;29;20190;-85
2022/03/16 10:48:19;;;;;;;74.00;38.77;;;8.30;99.90;;;;;;4861131;29;20266;-86
2022/03/16 10:50:47;;;;;;;75.67;37.90;;;8.30;99.90;;;;;;4861937;29;20202;-87
2022/03/16 10:53:15;;;;;;;77.47;40.33;;;8.40;99.90;;;;;;4871658;29;20200;-86
2022/03/16 10:55:41;;;;;;;81.13;38.33;;;;;;;;;;4880283;29;20598;-86
2022/03/16 10:58:08;;;;;;;79.17;40.53;;;8.50;99.90;;;;;;4877810;29;20186;-86
2022/03/16 11:00:35;;;;;;;74.30;37.67;;;8.60;99.90;;;;;;4880318;29;20186;-87
2022/03/16 11:03:06;;;;;;;82.57;38.20;;;8.60;99.90;;;;;;4873241;29;20217;-87
2022/03/16 11:05:36;;;;;;;68.47;35.97;;;;;;;;;;4869623;29;20178;-87
2022/03/16 11:08:06;;;;;;;73.97;36.50;;;8.70;99.90;;;;;;4858204;29;20186;-85
2022/03/16 11:10:33;;;;;;;73.87;35.07;;;;;;;;;;4875427;29;20240;-85
2022/03/16 11:15:44;;;;;;;69.43;37.47;;;;;;;;;;4896382;29;20234;-87
2022/03/16 11:18:10;;;;;;;74.13;37.70;;;;;;;;;;4895609;29;20185;-86
2022/03/16 11:20:37;;;;;;;77.53;35.63;;;;;;;;;;4885657;29;20334;-86
2022/03/16 11:26:16;;;;;;;80.10;40.20;;;9.40;99.90;;;;;;4881818;29;20253;-87
2022/03/16 11:29:15;;;;;;;76.97;36.20;;;9.40;99.90;;;;;;4882969;29;20316;-90
2022/03/16 11:31:42;;;;;;;66.87;36.13;;;;;;;;;;4864198;29;20222;-90
2022/03/16 11:34:10;;;;;;;62.10;34.77;;;;;;;;;;4869516;29;20254;-88
2022/03/16 11:36:41;;;;;;;64.10;34.37;;;9.20;99.90;;;;;;4880012;29;20166;-89
2022/03/16 11:39:15;;;;;;;76.17;40.10;;;9.20;99.90;;;;;;4884862;29;20182;-87
2022/03/16 11:41:52;;;;;;;71.77;33.70;;;9.50;96.30;;;;;;4895386;29;20237;-88
2022/03/16 11:44:26;;;;;;;57.57;32.43;;;9.90;95.60;;;;;;4885562;29;20162;-89
2022/03/16 11:47:17;;;;;;;60.13;32.93;;;9.50;93.20;;;;;;4880545;29;20200;-88
2022/03/16 11:50:11;;;;;;;59.53;32.70;;;9.50;93.20;;;;;;4877757;29;20189;-87
2022/03/16 11:53:04;;;;;;;63.57;32.20;;;9.50;98.80;;;;;;4876875;29;20224;-89
2022/03/16 11:55:50;;;;;;;61.33;30.70;;;9.50;92.90;;;;;;4880678;29;20632;-89
2022/03/16 11:58:25;;;;;;;57.10;30.07;;;9.50;92.00;;;;;;4879406;29;20190;-89
2022/03/16 12:01:12;;;;;;;59.43;33.13;;;9.50;91.80;;;;;;4878333;29;20188;-90
2022/03/16 12:03:44;;;;;;;63.90;32.57;;;9.90;96.20;;;;;;4879452;29;20205;-87
2022/03/16 12:06:10;;;;;;;73.20;33.27;;;;;;;;;;4881285;29;20593;-88
2022/03/16 12:08:52;;;;;;;62.20;33.80;;;9.50;99.00;;;;;;4862006;29;20652;-88
2022/03/16 12:14:06;;;;;;;56.77;32.30;;;9.70;93.60;;;;;;4860326;29;20386;-88
2022/03/16 12:16:44;;;;;;;61.97;32.27;;;9.70;90.30;;;;;;4859081;29;20198;-87
2022/03/16 12:19:31;;;;;;;59.00;33.70;;;9.70;90.60;;;;;;4862603;29;20194;-90
2022/03/16 12:21:57;;;;;;;65.80;33.80;;;;;;;;;;4863233;29;20186;-88
2022/03/16 12:30:07;;;;;;;64.57;33.07;;;9.60;96.00;;;;;;4871021;29;20222;-89
2022/03/16 12:32:36;;;;;;;65.33;34.53;;;9.70;89.20;;;;;;4853144;29;20187;-88
2022/03/16 12:35:06;;;;;;;61.10;31.97;;;9.80;87.10;;;;;;4868734;29;20182;-88
2022/03/16 12:37:32;;;;;;;62.20;31.60;;;9.60;95.10;;;;;;4869437;29;20198;-88
2022/03/16 12:39:58;;;;;;;57.73;30.27;;;10.20;92.30;;;;;;4868686;29;20187;-88
2022/03/16 12:42:33;;;;;;;60.97;30.60;;;10.00;93.20;;;;;;4874743;29;20193;-88
2022/03/16 12:45:12;;;;;;;64.90;30.33;;;10.60;94.90;;;;;;4869496;29;20188;-87
2022/03/16 12:47:42;;;;;;;59.43;31.77;;;10.10;83.60;;;;;;4869516;29;20177;-87
2022/03/16 12:50:17;;;;;;;64.53;30.47;;;10.10;81.70;;;;;;4876363;29;20186;-89
2022/03/16 12:52:50;;;;;;;57.13;30.27;;;10.30;93.10;;;;;;4867557;29;20241;-88
2022/03/16 12:55:18;;;;;;;68.73;32.33;;;;;;;;;;4852341;29;20231;-88
2022/03/16 12:57:57;;;;;;;92.23;41.27;;;10.40;92.70;;;;;;4871564;29;20191;-88
2022/03/16 13:00:38;;;;;;;60.53;30.80;;;10.30;91.10;;;;;;4869955;29;20209;-88
2022/03/16 13:03:17;;;;;;;56.70;29.83;;;10.30;78.10;;;;;;4864717;29;20167;-89
2022/03/16 13:05:43;;;;;;;66.80;28.57;;;;;;;;;;4864435;29;20190;-86
2022/03/16 13:08:09;;;;;;;54.20;28.57;;;10.30;85.60;;;;;;4883455;29;20205;-88
2022/03/16 13:11:14;;;;;;;83.90;30.53;;;10.90;90.40;;;;;;4883486;29;20286;-86
2022/03/16 13:13:22;;;;;;;49.37;26.93;;;10.90;81.90;;;;;;4887905;29;20201;-86
2022/03/16 13:15:50;;;;;;;52.95;28.60;;;11.00;73.90;;;;;;4879252;29;20205;-88
2022/03/16 13:18:35;;;;;;;55.60;29.05;;;11.40;89.50;;;;;;4867354;29;20518;-88
2022/03/16 13:21:21;;;;;;;59.95;31.00;;;11.30;82.30;;;;;;4884601;29;20198;-87
2022/03/16 13:23:47;;;;;;;48.67;29.80;;;;;;;;;;4883260;29;20205;-87
2022/03/16 13:26:13;;;;;;;53.23;28.80;;;11.60;91.00;;;;;;4886381;29;20208;-88
2022/03/16 13:28:39;;;;;;;56.37;30.63;;;;;;;;;;4881075;29;20639;-88
2022/03/16 13:31:05;;;;;;;54.58;29.23;;;12.20;88.80;;;;;;4881494;29;20210;-87
2022/03/16 13:33:32;;;;;;;63.85;32.53;;;12.30;85.80;;;;;;4881469;29;20185;-86
2022/03/16 13:36:12;;;;;;;54.67;30.27;;;12.90;83.10;;;;;;4875016;29;20285;-87
2022/03/16 13:38:38;;;;;;;57.13;29.40;;;12.90;82.60;;;;;;4875211;29;20672;-86
2022/03/16 13:41:15;;;;;;;60.88;32.28;;;13.30;81.00;;;;;;4880236;29;20182;-86
2022/03/16 13:43:41;;;;;;;53.83;28.88;;;13.70;79.40;;;;;;4874634;29;20174;-85
2022/03/16 13:46:14;;;;;;;47.55;26.73;;;14.00;75.80;;;;;;4873128;29;20198;-86
2022/03/16 13:48:44;;;;;;;49.25;27.35;;;14.40;74.10;;;;;;4870760;29;20163;-86
2022/03/16 13:51:11;;;;;;;51.20;29.75;;;14.60;73.20;;;;;;4869820;29;20728;-88
2022/03/16 13:59:43;;;;;;;50.50;28.67;;;14.40;71.60;;;;;;4761384;24;20245;-88
2022/03/16 14:02:10;;;;;;;47.85;28.65;;;14.40;68.30;;;;;;4867017;29;20229;-89
2022/03/16 14:04:42;;;;;;;53.47;28.10;;;13.20;73.20;;;;;;4883656;29;20261;-87